createdAt,value
2019-03-03T00:01:16.309Z,9.60
2019-03-03T00:03:46.330Z,9.60
2019-03-03T00:06:16.275Z,9.60
2019-03-03T00:08:47.089Z,9.60
2019-03-03T00:11:16.816Z,9.60
2019-03-03T00:13:46.552Z,9.60
2019-03-03T00:16:16.284Z,9.60
2019-03-03T00:18:46.080Z,9.60
2019-03-03T00:21:16.367Z,9.70
2019-03-03T00:23:46.627Z,9.60
2019-03-03T00:26:16.723Z,9.70
2019-03-03T00:28:46.598Z,9.70
2019-03-03T00:31:19.602Z,9.70
2019-03-03T00:33:49.392Z,9.70
2019-03-03T00:36:19.867Z,9.60
2019-03-03T00:39:14.915Z,9.60
2019-03-03T00:42:02.481Z,9.60
2019-03-03T00:44:54.159Z,9.60
2019-03-03T00:47:41.912Z,9.60
2019-03-03T00:50:23.630Z,9.60
2019-03-03T00:53:18.477Z,9.60
2019-03-03T00:55:56.964Z,9.60
2019-03-03T00:58:51.903Z,9.60
2019-03-03T01:01:30.194Z,9.60
2019-03-03T01:04:22.300Z,9.60
2019-03-03T01:07:09.978Z,9.60
2019-03-03T01:09:53.628Z,9.60
2019-03-03T01:12:42.851Z,9.60
2019-03-03T01:15:31.962Z,9.60
2019-03-03T01:18:36.901Z,9.60
2019-03-03T01:21:15.321Z,9.70
2019-03-03T01:24:01.967Z,9.70
2019-03-03T01:26:32.049Z,9.70
2019-03-03T01:29:02.069Z,9.70
2019-03-03T01:31:32.299Z,9.70
2019-03-03T01:34:02.851Z,9.70
2019-03-03T01:36:32.965Z,9.70
2019-03-03T01:39:03.610Z,9.70
2019-03-03T01:41:34.189Z,9.70
2019-03-03T01:44:04.389Z,9.70
2019-03-03T01:46:34.203Z,9.70
2019-03-03T01:49:04.249Z,9.70
2019-03-03T01:51:34.092Z,9.80
2019-03-03T01:54:04.500Z,9.80
2019-03-03T01:56:34.302Z,9.80
2019-03-03T01:59:04.226Z,9.80
2019-03-03T02:01:34.046Z,9.80
2019-03-03T02:04:05.406Z,9.80
2019-03-03T02:06:35.545Z,9.80
2019-03-03T02:09:10.341Z,9.80
2019-03-03T02:11:40.838Z,9.80
2019-03-03T02:14:10.627Z,9.80
2019-03-03T02:16:40.465Z,9.80
2019-03-03T02:19:10.369Z,9.80
2019-03-03T02:21:40.150Z,9.80
2019-03-03T02:24:10.218Z,9.80
2019-03-03T02:26:40.502Z,9.80
2019-03-03T02:29:10.706Z,9.80
2019-03-03T02:31:41.098Z,9.80
2019-03-03T02:34:10.960Z,9.80
2019-03-03T02:36:40.846Z,9.80
2019-03-03T02:39:18.232Z,9.80
2019-03-03T02:41:48.270Z,9.80
2019-03-03T02:44:19.621Z,9.80
2019-03-03T02:46:49.461Z,9.80
2019-03-03T02:49:19.329Z,9.80
2019-03-03T02:51:49.249Z,9.80
2019-03-03T02:54:20.587Z,9.80
2019-03-03T02:56:51.033Z,9.80
2019-03-03T02:59:20.807Z,9.80
2019-03-03T03:01:57.461Z,9.80
2019-03-03T03:04:27.472Z,9.90
2019-03-03T03:07:07.491Z,9.90
2019-03-03T03:09:58.933Z,9.90
2019-03-03T03:13:02.954Z,9.90
2019-03-03T03:15:46.672Z,9.90
2019-03-03T03:18:39.279Z,9.90
2019-03-03T03:21:27.335Z,9.90
2019-03-03T03:24:16.887Z,9.90
2019-03-03T03:26:59.349Z,9.90
2019-03-03T03:29:53.536Z,9.90
2019-03-03T03:32:37.145Z,9.90
2019-03-03T03:35:29.699Z,9.90
2019-03-03T03:38:30.281Z,10.00
2019-03-03T03:41:18.044Z,10.00
2019-03-03T03:44:03.924Z,10.00
2019-03-03T03:46:48.251Z,10.00
2019-03-03T03:49:48.954Z,10.00
2019-03-03T03:52:41.510Z,10.00
2019-03-03T03:55:28.944Z,10.00
2019-03-03T03:58:09.310Z,10.10
2019-03-03T04:01:00.894Z,10.00
2019-03-03T04:03:40.380Z,10.00
2019-03-03T04:06:21.073Z,10.00
2019-03-03T04:09:02.145Z,10.10
2019-03-03T04:11:54.338Z,10.10
2019-03-03T04:14:32.168Z,10.00
2019-03-03T04:17:24.083Z,10.10
2019-03-03T04:20:18.627Z,10.10
2019-03-03T04:23:10.037Z,10.00
2019-03-03T04:25:57.341Z,10.00
2019-03-03T04:28:45.151Z,10.00
2019-03-03T04:31:33.150Z,10.00
2019-03-03T04:34:11.441Z,10.00
2019-03-03T04:36:52.852Z,10.00
2019-03-03T04:39:44.405Z,9.90
2019-03-03T04:42:45.194Z,9.90
2019-03-03T04:45:20.539Z,9.90
2019-03-03T04:47:58.341Z,9.80
2019-03-03T04:50:53.038Z,9.80
2019-03-03T04:53:34.238Z,9.80
2019-03-03T04:56:22.884Z,9.70
2019-03-03T04:59:05.826Z,9.70
2019-03-03T05:02:04.074Z,9.70
2019-03-03T05:05:11.036Z,9.70
2019-03-03T05:07:53.525Z,9.60
2019-03-03T05:10:37.961Z,9.60
2019-03-03T05:13:25.571Z,9.60
2019-03-03T05:16:18.511Z,9.60
2019-03-03T05:19:03.834Z,9.50
2019-03-03T05:21:33.886Z,9.60
2019-03-03T05:24:03.682Z,9.60
2019-03-03T05:26:34.019Z,9.50
2019-03-03T05:29:03.956Z,9.50
2019-03-03T05:31:33.782Z,9.50
2019-03-03T05:34:03.570Z,9.50
2019-03-03T05:36:33.957Z,9.50
2019-03-03T05:39:05.416Z,9.50
2019-03-03T05:41:35.424Z,9.40
2019-03-03T05:44:05.227Z,9.50
2019-03-03T05:46:36.186Z,9.50
2019-03-03T05:49:05.953Z,9.50
2019-03-03T05:51:35.890Z,9.50
2019-03-03T05:54:05.824Z,9.50
2019-03-03T05:56:35.620Z,9.50
2019-03-03T05:59:05.647Z,9.50
2019-03-03T06:01:35.809Z,9.40
2019-03-03T06:04:05.781Z,9.40
2019-03-03T06:06:36.327Z,9.40
2019-03-03T06:09:07.529Z,9.50
2019-03-03T06:11:37.431Z,9.40
2019-03-03T06:14:07.364Z,9.40
2019-03-03T06:16:37.645Z,9.30
2019-03-03T06:19:07.581Z,9.40
2019-03-03T06:21:37.375Z,9.50
2019-03-03T06:24:07.228Z,9.40
2019-03-03T06:26:37.475Z,9.50
2019-03-03T06:29:07.360Z,9.40
2019-03-03T06:31:38.095Z,9.50
2019-03-03T06:34:08.012Z,9.50
2019-03-03T06:36:38.073Z,9.50
2019-03-03T06:39:08.587Z,9.50
2019-03-03T06:41:38.501Z,9.50
2019-03-03T06:44:08.283Z,9.50
2019-03-03T06:46:38.175Z,9.40
2019-03-03T06:49:08.156Z,9.40
2019-03-03T06:51:38.083Z,9.50
2019-03-03T06:54:07.954Z,9.40
2019-03-03T06:56:44.182Z,9.40
2019-03-03T06:59:14.184Z,9.50
2019-03-03T07:01:44.162Z,9.50
2019-03-03T07:04:14.150Z,9.50
2019-03-03T07:06:45.228Z,9.50
2019-03-03T07:09:15.853Z,9.50
2019-03-03T07:11:45.734Z,9.50
2019-03-03T07:14:15.833Z,9.50
2019-03-03T07:16:46.021Z,9.50
2019-03-03T07:19:16.383Z,9.50
2019-03-03T07:21:46.386Z,9.50
2019-03-03T07:24:16.272Z,9.50
2019-03-03T07:26:49.250Z,9.50
2019-03-03T07:29:25.169Z,9.40
2019-03-03T07:31:57.410Z,9.50
2019-03-03T07:34:28.745Z,9.50
2019-03-03T07:36:58.950Z,9.60
2019-03-03T07:39:28.763Z,9.60
2019-03-03T07:41:58.710Z,9.60
2019-03-03T07:44:28.409Z,9.60
2019-03-03T07:46:58.207Z,9.60
2019-03-03T07:49:28.017Z,9.60
2019-03-03T07:51:58.203Z,9.60
2019-03-03T07:54:28.077Z,9.60
2019-03-03T07:56:58.174Z,9.60
2019-03-03T07:59:28.111Z,9.60
2019-03-03T08:01:57.921Z,9.60
2019-03-03T08:04:32.404Z,9.60
2019-03-03T08:07:03.503Z,9.60
2019-03-03T08:09:34.458Z,9.60
2019-03-03T08:12:04.468Z,9.70
2019-03-03T08:14:34.324Z,9.60
2019-03-03T08:17:04.181Z,9.60
2019-03-03T08:19:34.147Z,9.70
2019-03-03T08:22:04.208Z,9.60
2019-03-03T08:24:34.771Z,9.70
2019-03-03T08:27:04.647Z,9.80
2019-03-03T08:29:34.378Z,9.80
2019-03-03T08:32:04.501Z,9.80
2019-03-03T08:34:34.334Z,9.80
2019-03-03T08:37:04.241Z,9.70
2019-03-03T08:39:34.297Z,9.80
2019-03-03T08:42:21.782Z,9.80
2019-03-03T08:45:13.969Z,9.90
2019-03-03T08:48:03.797Z,9.90
2019-03-03T08:50:38.624Z,9.90
2019-03-03T08:53:30.012Z,9.90
2019-03-03T08:56:21.893Z,9.90
2019-03-03T08:59:09.822Z,10.00
2019-03-03T09:01:50.097Z,9.90
2019-03-03T09:04:44.752Z,10.00
2019-03-03T09:07:31.135Z,10.00
2019-03-03T09:10:13.771Z,10.00
2019-03-03T09:12:52.196Z,10.00
2019-03-03T09:15:43.844Z,10.00
2019-03-03T09:18:31.794Z,10.00
2019-03-03T09:21:23.829Z,10.00
2019-03-03T09:24:12.735Z,10.10
2019-03-03T09:27:10.681Z,10.10
2019-03-03T09:29:51.914Z,10.10
2019-03-03T09:32:40.407Z,10.10
2019-03-03T09:35:20.760Z,10.10
2019-03-03T09:37:57.205Z,10.10
2019-03-03T09:40:49.035Z,10.10
2019-03-03T09:43:43.809Z,10.20
2019-03-03T09:46:41.585Z,10.10
2019-03-03T09:49:48.568Z,10.10
2019-03-03T09:52:40.478Z,10.10
2019-03-03T09:55:32.198Z,10.10
2019-03-03T09:58:16.552Z,10.20
2019-03-03T10:01:09.325Z,10.20
2019-03-03T10:04:00.805Z,10.20
2019-03-03T10:06:48.681Z,10.20
2019-03-03T10:09:49.966Z,10.20
2019-03-03T10:12:38.766Z,10.20
2019-03-03T10:15:32.377Z,10.20
2019-03-03T10:18:20.582Z,10.30
2019-03-03T10:21:09.133Z,10.30
2019-03-03T10:23:58.190Z,10.30
2019-03-03T10:26:38.037Z,10.30
2019-03-03T10:29:27.831Z,10.30
2019-03-03T10:32:09.992Z,10.30
2019-03-03T10:34:50.311Z,10.30
2019-03-03T10:37:48.282Z,10.40
2019-03-03T10:40:37.077Z,10.30
2019-03-03T10:43:15.166Z,10.40
2019-03-03T10:46:17.555Z,10.50
2019-03-03T10:48:55.652Z,10.50
2019-03-03T10:51:44.222Z,10.40
2019-03-03T10:54:37.345Z,10.50
2019-03-03T10:57:31.984Z,10.50
2019-03-03T11:00:24.980Z,10.50
2019-03-03T11:03:32.113Z,10.60
2019-03-03T11:06:32.911Z,10.60
2019-03-03T11:09:20.071Z,10.60
2019-03-03T11:12:09.189Z,10.60
2019-03-03T11:15:00.687Z,10.60
2019-03-03T11:17:41.117Z,10.60
2019-03-03T11:20:42.580Z,10.60
2019-03-03T11:23:30.335Z,10.70
2019-03-03T11:26:24.786Z,10.70
2019-03-03T11:29:13.815Z,10.60
2019-03-03T11:32:18.402Z,10.70
2019-03-03T11:35:16.208Z,10.70
2019-03-03T11:38:01.979Z,10.70
2019-03-03T11:40:56.748Z,10.80
2019-03-03T11:43:40.692Z,10.80
2019-03-03T11:46:32.226Z,10.90
2019-03-03T11:49:26.937Z,10.90
2019-03-03T11:52:30.960Z,10.90
2019-03-03T11:55:19.679Z,11.00
2019-03-03T11:58:22.201Z,10.90
2019-03-03T12:01:19.859Z,11.00
2019-03-03T12:04:29.972Z,11.00
2019-03-03T12:07:24.829Z,11.00
2019-03-03T12:10:13.566Z,11.00
2019-03-03T12:13:08.991Z,11.00
2019-03-03T12:15:53.013Z,11.00
2019-03-03T12:19:01.698Z,11.00
2019-03-03T12:22:03.009Z,11.10
2019-03-03T12:24:51.700Z,11.00
2019-03-03T12:27:43.841Z,10.90
2019-03-03T12:30:28.567Z,11.10
2019-03-03T12:33:32.966Z,11.10
2019-03-03T12:36:19.470Z,11.10
2019-03-03T12:39:04.431Z,11.20
2019-03-03T12:42:00.040Z,11.20
2019-03-03T12:44:58.016Z,11.20
2019-03-03T12:47:53.943Z,11.20
2019-03-03T12:50:34.730Z,11.30
2019-03-03T12:53:23.618Z,11.30
2019-03-03T12:56:15.362Z,11.30
2019-03-03T12:59:07.095Z,11.30
2019-03-03T13:01:48.004Z,11.30
2019-03-03T13:04:52.055Z,11.30
2019-03-03T13:07:44.792Z,11.30
2019-03-03T13:10:41.465Z,11.20
2019-03-03T13:13:32.668Z,11.40
2019-03-03T13:16:29.990Z,11.30
2019-03-03T13:19:21.824Z,11.30
2019-03-03T13:22:23.370Z,11.30
2019-03-03T13:25:09.127Z,11.30
2019-03-03T13:28:05.901Z,11.40
2019-03-03T13:31:00.901Z,11.40
2019-03-03T13:33:51.098Z,11.30
2019-03-03T13:36:56.302Z,11.30
2019-03-03T13:39:48.382Z,11.40
2019-03-03T13:42:36.030Z,11.40
2019-03-03T13:45:07.997Z,11.40
2019-03-03T13:47:38.496Z,11.40
2019-03-03T13:50:12.357Z,11.30
2019-03-03T13:52:42.590Z,11.30
2019-03-03T13:55:13.643Z,11.40
2019-03-03T13:57:43.961Z,11.30
2019-03-03T14:00:16.769Z,11.30
2019-03-03T14:02:47.071Z,11.30
2019-03-03T14:05:19.112Z,11.30
2019-03-03T14:07:49.292Z,11.30
2019-03-03T14:10:19.784Z,11.40
2019-03-03T14:12:53.165Z,11.40
2019-03-03T14:15:23.627Z,11.40
2019-03-03T14:17:53.813Z,11.40
2019-03-03T14:20:24.284Z,11.40
2019-03-03T14:22:56.193Z,11.40
2019-03-03T14:25:27.019Z,11.40
2019-03-03T14:27:57.728Z,11.40
2019-03-03T14:30:28.330Z,11.40
2019-03-03T14:32:59.605Z,11.40
2019-03-03T14:35:29.941Z,11.40
2019-03-03T14:38:00.561Z,11.40
2019-03-03T14:40:30.784Z,11.40
2019-03-03T14:43:00.952Z,11.40
2019-03-03T14:45:31.273Z,11.40
2019-03-03T14:48:01.452Z,11.40
2019-03-03T14:50:31.250Z,11.40
2019-03-03T14:53:02.589Z,11.40
2019-03-03T14:55:33.084Z,11.40
2019-03-03T14:58:03.255Z,11.40
2019-03-03T15:00:34.217Z,11.40
2019-03-03T15:03:08.129Z,11.40
2019-03-03T15:05:38.444Z,11.40
2019-03-03T15:08:08.907Z,11.40
2019-03-03T15:10:39.291Z,11.40
2019-03-03T15:13:10.956Z,11.40
2019-03-03T15:15:40.951Z,11.40
2019-03-03T15:18:11.838Z,11.40
2019-03-03T15:20:42.576Z,11.40
2019-03-03T15:23:13.067Z,11.40
2019-03-03T15:25:44.827Z,11.40
2019-03-03T15:28:17.691Z,11.40
2019-03-03T15:30:48.237Z,11.40
2019-03-03T15:33:18.766Z,11.40
2019-03-03T15:35:50.417Z,11.40
2019-03-03T15:38:21.133Z,11.40
2019-03-03T15:40:51.460Z,11.40
2019-03-03T15:43:22.386Z,11.40
2019-03-03T15:45:52.584Z,11.40
2019-03-03T15:48:23.001Z,11.40
2019-03-03T15:50:53.419Z,11.40
2019-03-03T15:53:23.800Z,11.40
2019-03-03T15:55:54.814Z,11.30
2019-03-03T15:58:27.228Z,11.30
2019-03-03T16:00:59.842Z,11.30
2019-03-03T16:03:35.510Z,11.30
2019-03-03T16:31:21.709Z,11.20
2019-03-03T16:33:52.124Z,11.20
2019-03-03T16:36:22.652Z,11.20
2019-03-03T16:38:52.617Z,11.10
2019-03-03T16:41:23.485Z,11.10
2019-03-03T16:43:53.258Z,11.10
2019-03-03T16:46:23.504Z,11.10
2019-03-03T16:48:53.213Z,11.10
2019-03-03T16:51:26.148Z,11.10
2019-03-03T16:53:56.661Z,11.10
2019-03-03T16:56:26.788Z,11.10
2019-03-03T16:58:57.784Z,11.00
2019-03-03T17:01:27.763Z,11.00
2019-03-03T17:04:00.434Z,11.00
2019-03-03T17:06:31.146Z,11.00
2019-03-03T17:09:00.791Z,11.00
2019-03-03T17:11:32.473Z,11.00
2019-03-03T17:14:02.963Z,11.00
2019-03-03T17:16:32.746Z,11.00
2019-03-03T17:19:02.818Z,11.00
2019-03-03T17:21:32.617Z,11.00
2019-03-03T17:24:02.373Z,11.00
2019-03-03T17:26:32.697Z,11.00
2019-03-03T17:29:03.563Z,11.00
2019-03-03T17:31:33.418Z,11.00
2019-03-03T17:34:12.678Z,11.00
2019-03-03T17:36:34.580Z,10.90
2019-03-03T17:39:05.768Z,10.90
2019-03-03T17:41:35.681Z,10.90
2019-03-03T17:44:05.364Z,10.90
2019-03-03T17:46:36.113Z,10.90
2019-03-03T17:49:05.972Z,10.90
2019-03-03T17:51:36.232Z,10.90
2019-03-03T17:54:06.091Z,10.90
2019-03-03T17:56:36.194Z,10.90
2019-03-03T17:59:06.021Z,10.80
2019-03-03T18:01:35.791Z,10.80
2019-03-03T18:04:05.644Z,10.90
2019-03-03T18:06:38.700Z,10.90
2019-03-03T18:09:10.471Z,10.80
2019-03-03T18:11:40.550Z,10.80
2019-03-03T18:14:11.318Z,10.80
2019-03-03T18:16:45.815Z,10.80
2019-03-03T18:19:16.000Z,10.80
2019-03-03T18:21:45.801Z,10.80
2019-03-03T18:24:16.146Z,10.80
2019-03-03T18:26:45.749Z,10.80
2019-03-03T18:29:15.547Z,10.80
2019-03-03T18:31:45.178Z,10.80
2019-03-03T18:34:15.388Z,10.70
2019-03-03T18:36:45.556Z,10.80
2019-03-03T18:39:15.283Z,10.80
2019-03-03T18:41:46.949Z,10.70
2019-03-03T18:44:16.746Z,10.80
2019-03-03T18:46:46.561Z,10.80
2019-03-03T18:49:16.368Z,10.80
2019-03-03T18:51:46.209Z,10.80
2019-03-03T18:54:15.864Z,10.80
2019-03-03T18:56:45.961Z,10.80
2019-03-03T18:59:15.996Z,10.70
2019-03-03T19:01:46.192Z,10.70
2019-03-03T19:04:17.173Z,10.70
2019-03-03T19:06:47.031Z,10.70
2019-03-03T19:09:21.979Z,10.70
2019-03-03T19:11:51.993Z,10.70
2019-03-03T19:14:28.327Z,10.80
2019-03-03T19:16:53.609Z,10.70
2019-03-03T19:19:24.905Z,10.70
2019-03-03T19:21:54.624Z,10.70
2019-03-03T19:24:24.356Z,10.70
2019-03-03T19:26:54.183Z,10.70
2019-03-03T19:29:24.325Z,10.70
2019-03-03T19:31:54.053Z,10.70
2019-03-03T19:34:24.607Z,10.70
2019-03-03T19:36:55.316Z,10.70
2019-03-03T19:39:25.199Z,10.60
2019-03-03T19:41:56.041Z,10.60
2019-03-03T19:44:26.015Z,10.60
2019-03-03T19:46:56.367Z,10.60
2019-03-03T19:49:26.381Z,10.60
2019-03-03T19:51:56.309Z,10.60
2019-03-03T19:54:26.492Z,10.60
2019-03-03T19:56:56.922Z,10.60
2019-03-03T19:59:26.769Z,10.60
2019-03-03T20:01:57.201Z,10.60
2019-03-03T20:04:28.131Z,10.50
2019-03-03T20:06:59.466Z,10.60
2019-03-03T20:09:29.747Z,10.60
2019-03-03T20:12:00.609Z,10.60
2019-03-03T20:14:31.766Z,10.50
2019-03-03T20:17:01.484Z,10.50
2019-03-03T20:19:31.447Z,10.50
2019-03-03T20:22:01.692Z,10.50
2019-03-03T20:24:31.547Z,10.50
2019-03-03T20:27:02.035Z,10.40
2019-03-03T20:29:31.901Z,10.40
2019-03-03T20:32:02.370Z,10.40
2019-03-03T20:34:36.501Z,10.40
2019-03-03T20:37:06.513Z,10.40
2019-03-03T20:39:36.467Z,10.40
2019-03-03T20:42:07.821Z,10.40
2019-03-03T20:44:38.008Z,10.40
2019-03-03T20:47:07.973Z,10.40
2019-03-03T20:49:37.893Z,10.40
2019-03-03T20:52:09.200Z,10.40
2019-03-03T20:54:39.691Z,10.40
2019-03-03T20:57:10.393Z,10.40
2019-03-03T20:59:40.362Z,10.40
2019-03-03T21:02:10.591Z,10.40
2019-03-03T21:04:41.431Z,10.50
2019-03-03T21:07:13.374Z,10.50
2019-03-03T21:09:43.323Z,10.50
2019-03-03T21:12:13.412Z,10.50
2019-03-03T21:14:43.348Z,10.50
2019-03-03T21:17:13.599Z,10.50
2019-03-03T21:19:43.408Z,10.40
2019-03-03T21:22:13.222Z,10.50
2019-03-03T21:24:43.270Z,10.50
2019-03-03T21:27:13.169Z,10.40
2019-03-03T21:29:44.824Z,10.50
2019-03-03T21:32:16.777Z,10.50
2019-03-03T21:34:48.298Z,10.50
2019-03-03T21:37:18.570Z,10.50
2019-03-03T21:39:48.819Z,10.50
2019-03-03T21:42:18.853Z,10.50
2019-03-03T21:44:49.025Z,10.50
2019-03-03T21:47:19.082Z,10.50
2019-03-03T21:49:49.265Z,10.50
2019-03-03T21:52:19.552Z,10.50
2019-03-03T21:54:53.898Z,10.50
2019-03-03T21:57:24.736Z,10.40
2019-03-03T21:59:55.137Z,10.40
2019-03-03T22:02:25.141Z,10.50
2019-03-03T22:04:55.362Z,10.40
2019-03-03T22:07:26.087Z,10.50
2019-03-03T22:09:56.027Z,10.50
2019-03-03T22:12:25.996Z,10.50
2019-03-03T22:14:56.010Z,10.50
2019-03-03T22:17:26.218Z,10.50
2019-03-03T22:19:56.118Z,10.50
2019-03-03T22:22:27.391Z,10.50
2019-03-03T22:24:59.893Z,10.50
2019-03-03T22:27:30.085Z,10.50
2019-03-03T22:30:00.095Z,10.50
2019-03-03T22:32:30.461Z,10.50
2019-03-03T22:35:00.933Z,10.50
2019-03-03T22:37:31.126Z,10.50
2019-03-03T22:40:01.788Z,10.40
2019-03-03T22:42:31.685Z,10.40
2019-03-03T22:45:01.657Z,10.40
2019-03-03T22:47:35.866Z,10.40
2019-03-03T22:50:05.871Z,10.30
2019-03-03T22:52:36.495Z,10.30
2019-03-03T22:55:07.690Z,10.30
2019-03-03T22:57:37.822Z,10.30
2019-03-03T23:00:17.362Z,10.30
2019-03-03T23:02:50.821Z,10.30
2019-03-03T23:05:39.668Z,10.30
2019-03-03T23:08:27.822Z,10.30
2019-03-03T23:11:19.339Z,10.20
2019-03-03T23:14:12.767Z,10.20
2019-03-03T23:17:14.600Z,10.20
2019-03-03T23:19:53.464Z,10.10
2019-03-03T23:22:59.840Z,10.10
2019-03-03T23:25:48.105Z,10.00
2019-03-03T23:28:19.946Z,10.10
2019-03-03T23:30:52.055Z,10.00
2019-03-03T23:33:23.215Z,10.00
2019-03-03T23:35:53.322Z,10.00
2019-03-03T23:38:23.695Z,9.90
2019-03-03T23:40:53.817Z,10.00
2019-03-03T23:43:23.722Z,10.00
2019-03-03T23:45:53.639Z,10.00
2019-03-03T23:48:23.464Z,10.00
2019-03-03T23:50:53.535Z,10.00
2019-03-03T23:53:23.309Z,10.00
2019-03-03T23:55:53.373Z,10.10
2019-03-03T23:58:23.553Z,10.20
